CYAB

Arctic Bay

Arctic Bay, , Canada
METAR CYAB 182000Z 11017G24KT 20SM FEW007 SCT016 SCT025 OVC040 02/M03 A2989 RMK SC1SC2SC1SC4 2.0/0.8/0.1/LAST STFD OBS/NEXT 191100Z VIS NE SE 6 BR CIG ESTD SLP124
Observed Flight Rules
Sep-18 @ 20:00 UTC (7 hours ago) Visual Flight Rules
Wind Visibility Clouds
110° at 17 knots
 Gusting to 24 knots
20 miles
  • Few at 700' AGL
  • Scattered at 1,600' AGL
  • Scattered at 2,500' AGL
  • Overcast at 4,000' AGL
Temperatures Readings
Current 2°C / 36°F
Dewpoint -3°C / 27°F
Humidity 70%
Altimeter 29.89" Hg
Pressure 1012.4 hPa
Elevation 22
METAR CYAB 182000Z 11017G24KT 20SM FEW007 SCT016 SCT025 OVC040 02/M03 A2989 RMK SC1SC2SC1SC4 2.0/0.8/0.1/LAST STFD OBS/NEXT 191100Z VIS NE SE 6 BR CIG ESTD SLP124
Observed Flight Rules
Sep-18 @ 20:00 UTC
(7 hours ago)
VFR
Wind Visibility
110° at 17 knots
 Gusting to 24 knots
20 miles
Clouds
  • Few at 700' AGL
  • Scattered at 1,600' AGL
  • Scattered at 2,500' AGL
  • Overcast at 4,000' AGL
Temperature Dewpoint
2°C / 36°F -3°C / 27°F
Humidity Altimeter Pressure
70% 29.89" Hg 1012.4 hPa